LLSD/SDV METAR and TAF weather

Enter ICAO airport designator
Station Type Date Time Source
LLSD METAR 2018/12/15 02:20 UTC NOAA

LLSD 150220Z 08004KT 050V110 CAVOK 15/07 Q1021


Station Type Date Time Source
LLSD Decoded METAR 2018/12/15 02:20 UTC NOAA

Tel Aviv / Sde-Dov Airport, Israel (LLSD) 32-06-53N 034-46-56E
Dec 14, 2018 - 09:20 PM EST / 2018.12.15 0220 UTC
Wind: from the E (080 degrees) at 5 MPH (4 KT) (direction variable):0
Visibility: greater than 7 mile(s):0
Temperature: 59 F (15 C)
Dew Point: 44 F (7 C)
Relative Humidity: 58%
Pressure (altimeter): 30.15 in. Hg (1021 hPa)
ob: LLSD 150220Z 08004KT 050V110 CAVOK 15/07 Q1021
cycle: 2

Station Type Date Time Source
LLSD TAF 2018/12/14 18:09 UTC NOAA

TAF TAF LLSD 141704Z 1418/1518 02008KT CAVOK
BECMG 1420/1423 09010KT PROB30 1502/1506 10015KT TX23/1512Z TN13/1504Z


Example: see airport list